»·PEaware :: APJ27 KSFO-KPDX

APJ27 :: KSFO-KPDX

FLIGHT INFORMATION

Flight Status: Arrived
Operator: Unknown
More flights by this operator :: More flights under this callsign
Pilot: Anonymous 18910 (18910)
Aircraft: AIRBUS A320
(A320)
More flights by this aircraft type
Origin: KSFO San Francisco Intl
United States
Destination: KPDX Portland Intl
United States
More flights between these airports :: More routes between these airports
Route: +TRUKN2 GRTFL MACHU TMBRS2
File this flight plan on PilotEdge
Remarks:
Altitude:
(Current/Filed)
38,000ft
Speed:
(Current/Filed)
350kts
Departed: 30-Jul-18 09:18 PM
Arrived: 30-Jul-18 10:28 PM
Distance/Time
Traveled:
478nm/1:10
Distance/Time
To Go:
Arrived

Flight Plot

Page will automatically refresh every two minutes.


Map Options




Map Legend


Flown Route
Filed Route
Departure Airport
Arrival Airport
Navaid (VOR, NDB)
Fix

Horizontal Profiles

Position Reports

Time Latitude Longitude Heading Altitude Ground
Speed
30-Jul-18 20:54 37.612263 -122.389054 298 18ft 0kts
30-Jul-18 20:55 37.612263 -122.389054 298 18ft 0kts
30-Jul-18 20:56 37.612263 -122.389054 298 18ft 0kts
30-Jul-18 20:57 37.612263 -122.389054 298 18ft 0kts
30-Jul-18 20:58 37.612263 -122.389054 298 18ft 0kts
30-Jul-18 20:59 37.612263 -122.389054 298 18ft 0kts
30-Jul-18 21:00 37.612263 -122.389054 298 18ft 0kts
30-Jul-18 21:01 37.612263 -122.389054 298 18ft 0kts
30-Jul-18 21:02 37.612263 -122.389054 298 18ft 0kts
30-Jul-18 21:03 37.612263 -122.389054 298 18ft 0kts
30-Jul-18 21:04 37.612263 -122.389054 298 18ft 0kts
30-Jul-18 21:05 37.612263 -122.389054 298 18ft 0kts
30-Jul-18 21:06 37.612263 -122.389054 298 18ft 0kts
30-Jul-18 21:07 37.612263 -122.389054 298 18ft 0kts
30-Jul-18 21:08 37.612263 -122.389054 298 18ft 0kts
30-Jul-18 21:09 37.612263 -122.389054 298 18ft 0kts
30-Jul-18 21:10 37.612263 -122.389054 298 18ft 0kts
30-Jul-18 21:11 37.612156 -122.388803 298 18ft 2kts
30-Jul-18 21:12 37.611845 -122.388156 332 18ft 2kts
30-Jul-18 21:13 37.611535 -122.388178 27 18ft 0kts
30-Jul-18 21:14 37.611535 -122.388177 27 18ft 0kts
30-Jul-18 21:15 37.611544 -122.388172 27 18ft 0kts
30-Jul-18 21:16 37.610952 -122.385645 112 18ft 10kts
30-Jul-18 21:17 37.608828 -122.384549 149 18ft 11kts
30-Jul-18 21:18 37.608390 -122.383677 116 18ft 5kts
30-Jul-18 21:19 37.626319 -122.370386 24 294ft 176kts
30-Jul-18 21:20 37.660541 -122.320738 52 2962ft 218kts
30-Jul-18 21:21 37.700849 -122.247288 55 5138ft 284kts
30-Jul-18 21:22 37.768003 -122.215395 356 8108ft 287kts
30-Jul-18 21:23 37.847881 -122.217885 358 10626ft 312kts
30-Jul-18 21:24 37.943644 -122.220440 358 11663ft 377kts
30-Jul-18 21:25 38.033574 -122.222864 358 13104ft 397kts
30-Jul-18 21:26 38.158900 -122.226319 358 15258ft 412kts
30-Jul-18 21:27 38.274469 -122.229386 358 16982ft 424kts
30-Jul-18 21:28 38.392465 -122.235649 355 18552ft 434kts
30-Jul-18 21:29 38.494660 -122.246261 355 19274ft 455kts
30-Jul-18 21:30 38.620379 -122.259296 354 20416ft 464kts
30-Jul-18 21:31 38.767960 -122.274740 354 21652ft 473kts
30-Jul-18 21:32 38.877750 -122.286261 354 22496ft 479kts
30-Jul-18 21:33 39.010400 -122.300230 354 23433ft 486kts
30-Jul-18 21:34 39.138319 -122.313742 354 24220ft 492kts
30-Jul-18 21:35 39.266433 -122.327333 353 25148ft 493kts
30-Jul-18 21:36 39.401217 -122.341699 353 26161ft 493kts
30-Jul-18 21:37 39.534537 -122.355945 353 27208ft 493kts
30-Jul-18 21:38 39.669464 -122.370414 353 28266ft 492kts
30-Jul-18 21:39 39.803957 -122.384893 353 29298ft 492kts
30-Jul-18 21:40 39.939356 -122.399525 353 29992ft 499kts
30-Jul-18 21:41 40.076688 -122.414414 353 30636ft 502kts
30-Jul-18 21:42 40.204553 -122.428358 352 31330ft 501kts
30-Jul-18 21:43 40.342505 -122.443448 352 31975ft 500kts
30-Jul-18 21:44 40.479935 -122.458538 352 31993ft 499kts
30-Jul-18 21:45 40.617581 -122.473711 352 31994ft 499kts
30-Jul-18 21:46 40.754381 -122.488859 352 31995ft 499kts
30-Jul-18 21:47 40.891210 -122.504076 352 32149ft 498kts
30-Jul-18 21:48 41.028102 -122.519360 352 32210ft 498kts
30-Jul-18 21:49 41.154730 -122.533553 352 32198ft 497kts
30-Jul-18 21:50 41.291914 -122.548994 352 32191ft 497kts
30-Jul-18 21:51 41.428866 -122.564472 352 32195ft 498kts
30-Jul-18 21:52 41.566563 -122.578063 354 32200ft 500kts
30-Jul-18 21:53 41.703691 -122.586979 354 32155ft 500kts
30-Jul-18 21:54 41.840938 -122.595949 354 32139ft 501kts
30-Jul-18 21:55 41.978270 -122.604956 354 32152ft 502kts
30-Jul-18 21:56 42.113436 -122.613860 354 32115ft 502kts
30-Jul-18 21:57 42.252638 -122.623100 354 32114ft 502kts
30-Jul-18 21:58 42.389281 -122.632224 353 32110ft 502kts
30-Jul-18 21:59 42.527794 -122.641514 353 32130ft 502kts
30-Jul-18 22:00 42.665926 -122.650819 353 32133ft 502kts
30-Jul-18 22:01 42.805234 -122.660248 352 32135ft 503kts
30-Jul-18 22:02 42.944636 -122.669723 352 32135ft 503kts
30-Jul-18 22:03 43.083583 -122.679213 352 32152ft 503kts
30-Jul-18 22:04 43.214943 -122.688229 353 31503ft 502kts
30-Jul-18 22:05 43.353898 -122.697799 353 30547ft 504kts
30-Jul-18 22:06 43.492162 -122.707337 353 29609ft 504kts
30-Jul-18 22:07 43.631321 -122.716960 353 28663ft 505kts
30-Jul-18 22:08 43.770429 -122.726624 353 27720ft 506kts
30-Jul-18 22:09 43.909637 -122.736341 353 26775ft 507kts
30-Jul-18 22:10 44.050488 -122.746219 353 25821ft 508kts
30-Jul-18 22:11 44.185475 -122.749623 1 24184ft 508kts
30-Jul-18 22:12 44.315133 -122.736923 1 21024ft 459kts
30-Jul-18 22:13 44.439380 -122.724690 2 19352ft 431kts
30-Jul-18 22:14 44.551553 -122.713605 2 18582ft 386kts
30-Jul-18 22:15 44.655170 -122.703222 2 16920ft 374kts
30-Jul-18 22:16 44.757047 -122.692918 2 15051ft 369kts
30-Jul-18 22:17 44.857543 -122.682798 3 13258ft 362kts
30-Jul-18 22:18 44.955273 -122.672965 3 11957ft 340kts
30-Jul-18 22:19 45.046082 -122.663796 4 10771ft 322kts
30-Jul-18 22:20 45.129596 -122.655290 4 9062ft 299kts
30-Jul-18 22:21 45.205447 -122.643442 22 7787ft 293kts
30-Jul-18 22:22 45.279991 -122.594436 26 5724ft 310kts
30-Jul-18 22:23 45.350929 -122.546855 26 4325ft 267kts
30-Jul-18 22:24 45.413387 -122.503962 26 4028ft 244kts
30-Jul-18 22:25 45.473868 -122.460077 25 3499ft 243kts
30-Jul-18 22:26 45.528257 -122.454873 310 2140ft 206kts
30-Jul-18 22:27 45.553314 -122.514133 298 1283ft 152kts
30-Jul-18 22:28 45.573034 -122.564691 299 346ft 141kts
30-Jul-18 22:29 45.587854 -122.601628 326 25ft 20kts
30-Jul-18 22:30 45.588499 -122.602195 338 25ft 0kts
30-Jul-18 22:31 45.589033 -122.602345 5 25ft 4kts
30-Jul-18 22:32 45.591744 -122.598768 31 29ft 14kts
30-Jul-18 22:33 45.592440 -122.597746 67 30ft 9kts
30-Jul-18 22:34 45.591327 -122.593936 207 28ft 4kts
30-Jul-18 22:35 45.591137 -122.594083 210 28ft 0kts

Navigation Log

Ident Type
1. KSFO Airport
2. KPDX Airport